sensor_id;sensor_type;location;lat;lon;timestamp;P1;durP1;ratioP1;P2;durP2;ratioP2
57389;SDS011;43217;52.694;6.214;2023-08-20T00:00:27;11.13;;;9.98;;
57389;SDS011;43217;52.694;6.214;2023-08-20T00:03:03;12.35;;;10.88;;
57389;SDS011;43217;52.694;6.214;2023-08-20T00:05:38;11.25;;;9.85;;
57389;SDS011;43217;52.694;6.214;2023-08-20T00:08:04;10.98;;;9.93;;
57389;SDS011;43217;52.694;6.214;2023-08-20T00:10:30;12.10;;;10.90;;
57389;SDS011;43217;52.694;6.214;2023-08-20T00:12:57;12.43;;;10.27;;
57389;SDS011;43217;52.694;6.214;2023-08-20T00:15:23;10.82;;;9.68;;
57389;SDS011;43217;52.694;6.214;2023-08-20T00:17:51;12.50;;;10.55;;
57389;SDS011;43217;52.694;6.214;2023-08-20T00:20:18;12.45;;;11.05;;
57389;SDS011;43217;52.694;6.214;2023-08-20T00:22:44;11.43;;;10.32;;
57389;SDS011;43217;52.694;6.214;2023-08-20T00:25:12;11.18;;;10.05;;
57389;SDS011;43217;52.694;6.214;2023-08-20T00:27:40;11.07;;;9.65;;
57389;SDS011;43217;52.694;6.214;2023-08-20T00:32:32;10.32;;;9.18;;
57389;SDS011;43217;52.694;6.214;2023-08-20T00:34:58;10.45;;;9.55;;
57389;SDS011;43217;52.694;6.214;2023-08-20T00:37:23;11.73;;;10.65;;
57389;SDS011;43217;52.694;6.214;2023-08-20T00:39:50;12.48;;;9.52;;
57389;SDS011;43217;52.694;6.214;2023-08-20T00:42:15;12.10;;;10.63;;
57389;SDS011;43217;52.694;6.214;2023-08-20T00:44:41;11.65;;;10.45;;
57389;SDS011;43217;52.694;6.214;2023-08-20T00:47:09;10.60;;;9.50;;
57389;SDS011;43217;52.694;6.214;2023-08-20T00:49:36;12.02;;;9.77;;
57389;SDS011;43217;52.694;6.214;2023-08-20T00:52:02;11.73;;;10.52;;
57389;SDS011;43217;52.694;6.214;2023-08-20T00:54:28;10.67;;;9.60;;
57389;SDS011;43217;52.694;6.214;2023-08-20T00:56:55;10.40;;;9.50;;
57389;SDS011;43217;52.694;6.214;2023-08-20T00:59:21;10.40;;;9.43;;
57389;SDS011;43217;52.694;6.214;2023-08-20T01:01:48;10.05;;;9.05;;
57389;SDS011;43217;52.694;6.214;2023-08-20T01:04:13;10.25;;;9.45;;
57389;SDS011;43217;52.694;6.214;2023-08-20T01:06:44;10.75;;;9.65;;
57389;SDS011;43217;52.694;6.214;2023-08-20T01:09:19;9.57;;;8.80;;
57389;SDS011;43217;52.694;6.214;2023-08-20T01:12:08;8.40;;;7.50;;
57389;SDS011;43217;52.694;6.214;2023-08-20T01:14:35;10.80;;;8.57;;
57389;SDS011;43217;52.694;6.214;2023-08-20T01:17:01;9.40;;;8.70;;
57389;SDS011;43217;52.694;6.214;2023-08-20T01:19:26;9.98;;;9.00;;
57389;SDS011;43217;52.694;6.214;2023-08-20T01:29:48;12.27;;;9.60;;
57389;SDS011;43217;52.694;6.214;2023-08-20T01:32:14;10.52;;;9.18;;
57389;SDS011;43217;52.694;6.214;2023-08-20T01:34:41;9.18;;;8.05;;
57389;SDS011;43217;52.694;6.214;2023-08-20T01:37:07;9.40;;;7.82;;
57389;SDS011;43217;52.694;6.214;2023-08-20T01:39:33;9.20;;;8.23;;
57389;SDS011;43217;52.694;6.214;2023-08-20T01:41:58;8.57;;;7.82;;
57389;SDS011;43217;52.694;6.214;2023-08-20T01:44:24;9.77;;;8.88;;
57389;SDS011;43217;52.694;6.214;2023-08-20T01:46:50;10.50;;;8.82;;
57389;SDS011;43217;52.694;6.214;2023-08-20T01:49:16;9.43;;;8.40;;
57389;SDS011;43217;52.694;6.214;2023-08-20T01:51:41;9.15;;;8.25;;
57389;SDS011;43217;52.694;6.214;2023-08-20T01:54:07;9.50;;;8.50;;
57389;SDS011;43217;52.694;6.214;2023-08-20T01:56:32;10.50;;;9.40;;
57389;SDS011;43217;52.694;6.214;2023-08-20T01:58:58;9.65;;;8.70;;
57389;SDS011;43217;52.694;6.214;2023-08-20T02:01:24;9.88;;;8.95;;
57389;SDS011;43217;52.694;6.214;2023-08-20T02:03:50;9.63;;;8.57;;
57389;SDS011;43217;52.694;6.214;2023-08-20T02:06:15;9.07;;;8.27;;
57389;SDS011;43217;52.694;6.214;2023-08-20T02:08:41;10.63;;;8.93;;
57389;SDS011;43217;52.694;6.214;2023-08-20T02:11:07;10.57;;;9.43;;
57389;SDS011;43217;52.694;6.214;2023-08-20T02:13:32;10.93;;;9.45;;
57389;SDS011;43217;52.694;6.214;2023-08-20T02:15:59;12.02;;;10.27;;
57389;SDS011;43217;52.694;6.214;2023-08-20T02:18:25;13.05;;;10.55;;
57389;SDS011;43217;52.694;6.214;2023-08-20T02:20:51;9.90;;;8.88;;
57389;SDS011;43217;52.694;6.214;2023-08-20T02:23:16;10.48;;;9.27;;
57389;SDS011;43217;52.694;6.214;2023-08-20T02:25:43;11.23;;;9.18;;
57389;SDS011;43217;52.694;6.214;2023-08-20T02:28:09;10.45;;;9.20;;
57389;SDS011;43217;52.694;6.214;2023-08-20T02:30:44;9.88;;;8.70;;
57389;SDS011;43217;52.694;6.214;2023-08-20T02:33:11;8.88;;;8.02;;
57389;SDS011;43217;52.694;6.214;2023-08-20T02:35:37;10.63;;;9.63;;
57389;SDS011;43217;52.694;6.214;2023-08-20T02:38:03;10.85;;;9.68;;
57389;SDS011;43217;52.694;6.214;2023-08-20T02:40:30;11.68;;;10.57;;
57389;SDS011;43217;52.694;6.214;2023-08-20T02:42:55;9.30;;;8.25;;
57389;SDS011;43217;52.694;6.214;2023-08-20T02:45:21;11.23;;;8.57;;
57389;SDS011;43217;52.694;6.214;2023-08-20T02:47:48;11.52;;;9.85;;
57389;SDS011;43217;52.694;6.214;2023-08-20T02:50:14;12.30;;;10.37;;
57389;SDS011;43217;52.694;6.214;2023-08-20T02:52:41;10.77;;;9.48;;
57389;SDS011;43217;52.694;6.214;2023-08-20T02:55:07;12.48;;;9.80;;
57389;SDS011;43217;52.694;6.214;2023-08-20T02:57:33;12.68;;;9.80;;
57389;SDS011;43217;52.694;6.214;2023-08-20T02:59:59;11.32;;;10.10;;
57389;SDS011;43217;52.694;6.214;2023-08-20T03:02:25;10.85;;;9.77;;
57389;SDS011;43217;52.694;6.214;2023-08-20T03:04:50;10.80;;;9.63;;
57389;SDS011;43217;52.694;6.214;2023-08-20T03:07:16;10.43;;;9.15;;
57389;SDS011;43217;52.694;6.214;2023-08-20T03:09:42;11.20;;;9.20;;
57389;SDS011;43217;52.694;6.214;2023-08-20T03:12:07;10.85;;;9.70;;
57389;SDS011;43217;52.694;6.214;2023-08-20T03:14:33;11.30;;;10.30;;
57389;SDS011;43217;52.694;6.214;2023-08-20T03:16:59;11.20;;;10.23;;
57389;SDS011;43217;52.694;6.214;2023-08-20T03:19:24;11.20;;;10.15;;
57389;SDS011;43217;52.694;6.214;2023-08-20T03:21:50;11.55;;;9.93;;
57389;SDS011;43217;52.694;6.214;2023-08-20T03:24:16;11.10;;;10.10;;
57389;SDS011;43217;52.694;6.214;2023-08-20T03:26:41;11.15;;;9.80;;
57389;SDS011;43217;52.694;6.214;2023-08-20T03:29:07;13.43;;;10.68;;
57389;SDS011;43217;52.694;6.214;2023-08-20T03:31:32;11.68;;;10.57;;
57389;SDS011;43217;52.694;6.214;2023-08-20T03:33:58;11.43;;;10.32;;
57389;SDS011;43217;52.694;6.214;2023-08-20T03:36:24;14.48;;;12.07;;
57389;SDS011;43217;52.694;6.214;2023-08-20T03:38:49;12.60;;;11.40;;
57389;SDS011;43217;52.694;6.214;2023-08-20T03:41:15;12.13;;;10.98;;
57389;SDS011;43217;52.694;6.214;2023-08-20T03:43:42;13.93;;;12.63;;
57389;SDS011;43217;52.694;6.214;2023-08-20T03:46:07;14.25;;;12.70;;
57389;SDS011;43217;52.694;6.214;2023-08-20T03:48:33;14.27;;;13.07;;
57389;SDS011;43217;52.694;6.214;2023-08-20T03:50:59;16.40;;;14.43;;
57389;SDS011;43217;52.694;6.214;2023-08-20T03:53:24;17.50;;;14.93;;
57389;SDS011;43217;52.694;6.214;2023-08-20T03:55:50;15.85;;;14.20;;
57389;SDS011;43217;52.694;6.214;2023-08-20T03:58:16;15.10;;;12.98;;
57389;SDS011;43217;52.694;6.214;2023-08-20T04:00:41;14.32;;;12.48;;
57389;SDS011;43217;52.694;6.214;2023-08-20T04:03:08;14.60;;;12.90;;
57389;SDS011;43217;52.694;6.214;2023-08-20T04:05:37;14.63;;;13.32;;
57389;SDS011;43217;52.694;6.214;2023-08-20T04:08:04;15.48;;;14.15;;
57389;SDS011;43217;52.694;6.214;2023-08-20T04:10:30;18.13;;;16.33;;
57389;SDS011;43217;52.694;6.214;2023-08-20T04:12:56;17.45;;;15.75;;
57389;SDS011;43217;52.694;6.214;2023-08-20T04:15:23;17.27;;;15.55;;
57389;SDS011;43217;52.694;6.214;2023-08-20T04:17:49;16.45;;;14.90;;
57389;SDS011;43217;52.694;6.214;2023-08-20T04:20:15;17.48;;;15.88;;
57389;SDS011;43217;52.694;6.214;2023-08-20T04:22:42;17.35;;;15.60;;
57389;SDS011;43217;52.694;6.214;2023-08-20T04:25:07;14.45;;;13.05;;
57389;SDS011;43217;52.694;6.214;2023-08-20T04:27:33;15.02;;;13.20;;
57389;SDS011;43217;52.694;6.214;2023-08-20T04:29:59;15.02;;;13.63;;
57389;SDS011;43217;52.694;6.214;2023-08-20T04:32:25;16.02;;;14.32;;
57389;SDS011;43217;52.694;6.214;2023-08-20T04:34:51;15.60;;;14.13;;
57389;SDS011;43217;52.694;6.214;2023-08-20T04:39:44;14.30;;;12.88;;
57389;SDS011;43217;52.694;6.214;2023-08-20T04:42:09;14.43;;;13.02;;
57389;SDS011;43217;52.694;6.214;2023-08-20T04:44:37;14.82;;;12.68;;
57389;SDS011;43217;52.694;6.214;2023-08-20T04:47:03;13.45;;;11.98;;
57389;SDS011;43217;52.694;6.214;2023-08-20T04:49:29;13.15;;;11.75;;
57389;SDS011;43217;52.694;6.214;2023-08-20T04:51:55;13.38;;;11.32;;
57389;SDS011;43217;52.694;6.214;2023-08-20T04:54:20;13.50;;;12.10;;
57389;SDS011;43217;52.694;6.214;2023-08-20T04:56:46;13.27;;;11.70;;
57389;SDS011;43217;52.694;6.214;2023-08-20T04:59:12;16.25;;;14.73;;
57389;SDS011;43217;52.694;6.214;2023-08-20T05:01:38;16.05;;;14.45;;
57389;SDS011;43217;52.694;6.214;2023-08-20T05:04:04;14.43;;;13.05;;
57389;SDS011;43217;52.694;6.214;2023-08-20T05:06:30;14.90;;;12.52;;
57389;SDS011;43217;52.694;6.214;2023-08-20T05:08:55;14.98;;;12.52;;
57389;SDS011;43217;52.694;6.214;2023-08-20T05:11:21;13.40;;;10.93;;
57389;SDS011;43217;52.694;6.214;2023-08-20T05:13:47;11.52;;;10.43;;
57389;SDS011;43217;52.694;6.214;2023-08-20T05:16:14;9.73;;;8.88;;
57389;SDS011;43217;52.694;6.214;2023-08-20T05:18:40;10.25;;;9.25;;
57389;SDS011;43217;52.694;6.214;2023-08-20T05:21:05;9.35;;;7.80;;
57389;SDS011;43217;52.694;6.214;2023-08-20T05:23:31;11.63;;;9.63;;
57389;SDS011;43217;52.694;6.214;2023-08-20T05:25:56;10.02;;;9.13;;
57389;SDS011;43217;52.694;6.214;2023-08-20T05:28:22;10.05;;;9.00;;
57389;SDS011;43217;52.694;6.214;2023-08-20T05:30:56;10.93;;;9.20;;
57389;SDS011;43217;52.694;6.214;2023-08-20T05:33:22;9.70;;;7.40;;
57389;SDS011;43217;52.694;6.214;2023-08-20T05:35:48;8.77;;;7.88;;
57389;SDS011;43217;52.694;6.214;2023-08-20T05:38:14;9.15;;;7.82;;
57389;SDS011;43217;52.694;6.214;2023-08-20T05:40:40;11.20;;;8.32;;
57389;SDS011;43217;52.694;6.214;2023-08-20T05:43:06;8.43;;;7.43;;
57389;SDS011;43217;52.694;6.214;2023-08-20T05:45:32;10.98;;;7.82;;
57389;SDS011;43217;52.694;6.214;2023-08-20T05:47:57;8.48;;;7.57;;
57389;SDS011;43217;52.694;6.214;2023-08-20T05:50:23;9.90;;;8.10;;
57389;SDS011;43217;52.694;6.214;2023-08-20T05:52:49;11.40;;;8.27;;
57389;SDS011;43217;52.694;6.214;2023-08-20T05:55:14;10.43;;;7.80;;
57389;SDS011;43217;52.694;6.214;2023-08-20T05:57:41;13.05;;;8.20;;
57389;SDS011;43217;52.694;6.214;2023-08-20T06:00:08;12.65;;;8.20;;
57389;SDS011;43217;52.694;6.214;2023-08-20T06:02:34;10.65;;;8.43;;
57389;SDS011;43217;52.694;6.214;2023-08-20T06:04:59;9.40;;;7.43;;
57389;SDS011;43217;52.694;6.214;2023-08-20T06:07:25;10.02;;;7.97;;
57389;SDS011;43217;52.694;6.214;2023-08-20T06:09:51;10.20;;;7.25;;
57389;SDS011;43217;52.694;6.214;2023-08-20T06:12:17;10.38;;;7.43;;
57389;SDS011;43217;52.694;6.214;2023-08-20T06:14:51;9.50;;;8.35;;
57389;SDS011;43217;52.694;6.214;2023-08-20T06:17:16;8.80;;;7.07;;
57389;SDS011;43217;52.694;6.214;2023-08-20T06:19:42;9.20;;;6.75;;
57389;SDS011;43217;52.694;6.214;2023-08-20T06:22:09;8.77;;;6.30;;
57389;SDS011;43217;52.694;6.214;2023-08-20T06:24:34;10.57;;;6.90;;
57389;SDS011;43217;52.694;6.214;2023-08-20T06:27:00;9.32;;;6.90;;
57389;SDS011;43217;52.694;6.214;2023-08-20T06:29:26;10.82;;;6.80;;
57389;SDS011;43217;52.694;6.214;2023-08-20T06:31:51;12.20;;;7.28;;
57389;SDS011;43217;52.694;6.214;2023-08-20T06:34:17;9.82;;;6.15;;
57389;SDS011;43217;52.694;6.214;2023-08-20T06:36:43;9.25;;;6.60;;
57389;SDS011;43217;52.694;6.214;2023-08-20T06:39:09;7.47;;;6.18;;
57389;SDS011;43217;52.694;6.214;2023-08-20T06:41:34;8.82;;;5.60;;
57389;SDS011;43217;52.694;6.214;2023-08-20T06:44:00;8.02;;;5.22;;
57389;SDS011;43217;52.694;6.214;2023-08-20T06:46:27;7.90;;;5.33;;
57389;SDS011;43217;52.694;6.214;2023-08-20T06:48:52;7.78;;;4.85;;
57389;SDS011;43217;52.694;6.214;2023-08-20T06:51:21;8.68;;;5.03;;
57389;SDS011;43217;52.694;6.214;2023-08-20T06:53:47;7.10;;;4.68;;
57389;SDS011;43217;52.694;6.214;2023-08-20T06:56:13;7.53;;;3.87;;
57389;SDS011;43217;52.694;6.214;2023-08-20T06:58:40;7.95;;;4.00;;
57389;SDS011;43217;52.694;6.214;2023-08-20T07:03:42;7.23;;;4.10;;
57389;SDS011;43217;52.694;6.214;2023-08-20T07:06:09;6.30;;;4.15;;
57389;SDS011;43217;52.694;6.214;2023-08-20T07:08:35;7.93;;;3.67;;
57389;SDS011;43217;52.694;6.214;2023-08-20T07:11:05;7.22;;;3.88;;
57389;SDS011;43217;52.694;6.214;2023-08-20T07:13:31;5.95;;;3.70;;
57389;SDS011;43217;52.694;6.214;2023-08-20T07:15:57;6.93;;;4.10;;
57389;SDS011;43217;52.694;6.214;2023-08-20T07:18:22;12.97;;;4.47;;
57389;SDS011;43217;52.694;6.214;2023-08-20T07:20:49;9.50;;;4.10;;
57389;SDS011;43217;52.694;6.214;2023-08-20T07:23:15;7.95;;;4.15;;
57389;SDS011;43217;52.694;6.214;2023-08-20T07:25:41;8.27;;;3.90;;
57389;SDS011;43217;52.694;6.214;2023-08-20T07:28:07;6.87;;;3.50;;
57389;SDS011;43217;52.694;6.214;2023-08-20T07:30:34;9.75;;;4.45;;
57389;SDS011;43217;52.694;6.214;2023-08-20T07:33:00;8.13;;;4.03;;
57389;SDS011;43217;52.694;6.214;2023-08-20T07:35:26;7.53;;;4.07;;
57389;SDS011;43217;52.694;6.214;2023-08-20T07:37:52;10.43;;;5.10;;
57389;SDS011;43217;52.694;6.214;2023-08-20T07:40:18;8.53;;;3.97;;
57389;SDS011;43217;52.694;6.214;2023-08-20T07:42:44;8.05;;;4.30;;
57389;SDS011;43217;52.694;6.214;2023-08-20T07:45:12;5.97;;;3.80;;
57389;SDS011;43217;52.694;6.214;2023-08-20T07:47:38;6.97;;;3.58;;
57389;SDS011;43217;52.694;6.214;2023-08-20T07:50:05;8.10;;;4.20;;
57389;SDS011;43217;52.694;6.214;2023-08-20T07:52:34;9.95;;;3.92;;
57389;SDS011;43217;52.694;6.214;2023-08-20T07:54:59;6.32;;;3.47;;
57389;SDS011;43217;52.694;6.214;2023-08-20T07:57:25;6.90;;;3.70;;
57389;SDS011;43217;52.694;6.214;2023-08-20T07:59:51;8.97;;;3.43;;
57389;SDS011;43217;52.694;6.214;2023-08-20T08:02:18;7.23;;;4.00;;
57389;SDS011;43217;52.694;6.214;2023-08-20T08:07:10;7.47;;;3.70;;
57389;SDS011;43217;52.694;6.214;2023-08-20T08:09:36;8.32;;;3.75;;
57389;SDS011;43217;52.694;6.214;2023-08-20T08:12:02;7.28;;;3.40;;
57389;SDS011;43217;52.694;6.214;2023-08-20T08:16:54;6.83;;;3.53;;
57389;SDS011;43217;52.694;6.214;2023-08-20T08:19:20;8.33;;;3.93;;
57389;SDS011;43217;52.694;6.214;2023-08-20T08:21:47;6.17;;;3.60;;
57389;SDS011;43217;52.694;6.214;2023-08-20T08:24:14;6.18;;;3.42;;
57389;SDS011;43217;52.694;6.214;2023-08-20T08:26:40;5.78;;;3.15;;
57389;SDS011;43217;52.694;6.214;2023-08-20T08:29:06;5.63;;;2.90;;
57389;SDS011;43217;52.694;6.214;2023-08-20T08:31:36;6.28;;;3.53;;
57389;SDS011;43217;52.694;6.214;2023-08-20T08:34:02;6.13;;;3.20;;
57389;SDS011;43217;52.694;6.214;2023-08-20T08:36:28;5.72;;;2.90;;
57389;SDS011;43217;52.694;6.214;2023-08-20T08:38:54;5.93;;;2.63;;
57389;SDS011;43217;52.694;6.214;2023-08-20T08:41:23;7.83;;;3.33;;
57389;SDS011;43217;52.694;6.214;2023-08-20T08:43:51;5.82;;;3.35;;
57389;SDS011;43217;52.694;6.214;2023-08-20T08:46:19;6.47;;;2.33;;
57389;SDS011;43217;52.694;6.214;2023-08-20T08:48:46;3.47;;;2.17;;
57389;SDS011;43217;52.694;6.214;2023-08-20T08:53:38;6.75;;;2.58;;
57389;SDS011;43217;52.694;6.214;2023-08-20T08:56:06;5.43;;;2.38;;
57389;SDS011;43217;52.694;6.214;2023-08-20T08:58:32;4.85;;;2.40;;
57389;SDS011;43217;52.694;6.214;2023-08-20T09:00:58;7.80;;;2.83;;
57389;SDS011;43217;52.694;6.214;2023-08-20T09:03:24;6.93;;;2.70;;
57389;SDS011;43217;52.694;6.214;2023-08-20T09:06:09;4.68;;;2.72;;
57389;SDS011;43217;52.694;6.214;2023-08-20T09:08:35;8.02;;;2.58;;
57389;SDS011;43217;52.694;6.214;2023-08-20T09:11:01;5.75;;;2.50;;
57389;SDS011;43217;52.694;6.214;2023-08-20T09:16:07;5.60;;;2.60;;
57389;SDS011;43217;52.694;6.214;2023-08-20T09:18:39;5.43;;;2.05;;
57389;SDS011;43217;52.694;6.214;2023-08-20T09:21:11;5.68;;;1.80;;
57389;SDS011;43217;52.694;6.214;2023-08-20T09:23:38;3.90;;;1.63;;
57389;SDS011;43217;52.694;6.214;2023-08-20T09:26:07;5.00;;;1.85;;
57389;SDS011;43217;52.694;6.214;2023-08-20T09:28:43;4.57;;;2.03;;
57389;SDS011;43217;52.694;6.214;2023-08-20T09:31:10;4.20;;;1.42;;
57389;SDS011;43217;52.694;6.214;2023-08-20T09:33:36;3.83;;;1.38;;
57389;SDS011;43217;52.694;6.214;2023-08-20T09:36:04;5.22;;;1.40;;
57389;SDS011;43217;52.694;6.214;2023-08-20T09:38:36;4.30;;;1.45;;
57389;SDS011;43217;52.694;6.214;2023-08-20T09:41:04;3.20;;;1.30;;
57389;SDS011;43217;52.694;6.214;2023-08-20T09:43:33;4.07;;;1.30;;
57389;SDS011;43217;52.694;6.214;2023-08-20T09:46:03;4.15;;;1.20;;
57389;SDS011;43217;52.694;6.214;2023-08-20T09:48:34;4.75;;;1.50;;
57389;SDS011;43217;52.694;6.214;2023-08-20T09:51:08;3.03;;;1.40;;
57389;SDS011;43217;52.694;6.214;2023-08-20T09:53:48;3.72;;;1.48;;
57389;SDS011;43217;52.694;6.214;2023-08-20T09:56:22;3.90;;;1.33;;
57389;SDS011;43217;52.694;6.214;2023-08-20T09:58:54;4.18;;;1.17;;
57389;SDS011;43217;52.694;6.214;2023-08-20T10:01:20;3.58;;;1.30;;
57389;SDS011;43217;52.694;6.214;2023-08-20T10:03:46;3.83;;;1.10;;
57389;SDS011;43217;52.694;6.214;2023-08-20T10:06:12;2.80;;;1.27;;
57389;SDS011;43217;52.694;6.214;2023-08-20T10:08:38;3.20;;;1.30;;
57389;SDS011;43217;52.694;6.214;2023-08-20T10:11:06;2.45;;;1.00;;
57389;SDS011;43217;52.694;6.214;2023-08-20T10:13:32;4.10;;;1.30;;
57389;SDS011;43217;52.694;6.214;2023-08-20T10:15:57;3.90;;;1.30;;
57389;SDS011;43217;52.694;6.214;2023-08-20T10:18:24;2.80;;;1.63;;
57389;SDS011;43217;52.694;6.214;2023-08-20T10:20:51;3.08;;;1.30;;
57389;SDS011;43217;52.694;6.214;2023-08-20T10:23:20;4.03;;;1.40;;
57389;SDS011;43217;52.694;6.214;2023-08-20T10:25:50;3.25;;;1.08;;
57389;SDS011;43217;52.694;6.214;2023-08-20T10:28:28;4.22;;;1.27;;
57389;SDS011;43217;52.694;6.214;2023-08-20T10:31:04;6.63;;;1.80;;
57389;SDS011;43217;52.694;6.214;2023-08-20T10:33:33;3.30;;;1.20;;
57389;SDS011;43217;52.694;6.214;2023-08-20T10:36:06;4.10;;;1.48;;
57389;SDS011;43217;52.694;6.214;2023-08-20T10:38:39;5.50;;;1.50;;
57389;SDS011;43217;52.694;6.214;2023-08-20T10:41:06;3.50;;;1.43;;
57389;SDS011;43217;52.694;6.214;2023-08-20T10:44:18;6.35;;;1.23;;
57389;SDS011;43217;52.694;6.214;2023-08-20T10:46:28;4.10;;;1.40;;
57389;SDS011;43217;52.694;6.214;2023-08-20T10:48:57;4.47;;;1.50;;
57389;SDS011;43217;52.694;6.214;2023-08-20T10:51:37;6.85;;;1.88;;
57389;SDS011;43217;52.694;6.214;2023-08-20T10:56:41;9.57;;;5.32;;
57389;SDS011;43217;52.694;6.214;2023-08-20T10:59:08;4.90;;;1.50;;
57389;SDS011;43217;52.694;6.214;2023-08-20T11:01:55;5.90;;;1.50;;
57389;SDS011;43217;52.694;6.214;2023-08-20T11:04:23;4.60;;;1.70;;
57389;SDS011;43217;52.694;6.214;2023-08-20T11:06:52;4.80;;;2.03;;
57389;SDS011;43217;52.694;6.214;2023-08-20T11:09:21;5.25;;;1.60;;
57389;SDS011;43217;52.694;6.214;2023-08-20T11:11:47;4.97;;;2.17;;
57389;SDS011;43217;52.694;6.214;2023-08-20T11:14:14;5.57;;;1.73;;
57389;SDS011;43217;52.694;6.214;2023-08-20T11:16:41;4.25;;;1.80;;
57389;SDS011;43217;52.694;6.214;2023-08-20T11:19:11;3.38;;;1.40;;
57389;SDS011;43217;52.694;6.214;2023-08-20T11:21:38;5.20;;;1.40;;
57389;SDS011;43217;52.694;6.214;2023-08-20T11:26:34;7.15;;;1.60;;
57389;SDS011;43217;52.694;6.214;2023-08-20T11:29:00;4.13;;;1.30;;
57389;SDS011;43217;52.694;6.214;2023-08-20T11:31:49;4.38;;;1.30;;
57389;SDS011;43217;52.694;6.214;2023-08-20T11:34:15;4.95;;;1.50;;
57389;SDS011;43217;52.694;6.214;2023-08-20T11:36:41;3.40;;;1.50;;
57389;SDS011;43217;52.694;6.214;2023-08-20T11:39:07;5.17;;;2.07;;
57389;SDS011;43217;52.694;6.214;2023-08-20T11:41:37;6.63;;;1.48;;
57389;SDS011;43217;52.694;6.214;2023-08-20T11:44:03;4.68;;;1.40;;
57389;SDS011;43217;52.694;6.214;2023-08-20T11:46:29;4.28;;;1.58;;
57389;SDS011;43217;52.694;6.214;2023-08-20T11:49:02;4.10;;;1.33;;
57389;SDS011;43217;52.694;6.214;2023-08-20T11:54:08;4.03;;;1.75;;
57389;SDS011;43217;52.694;6.214;2023-08-20T11:56:45;4.90;;;1.58;;
57389;SDS011;43217;52.694;6.214;2023-08-20T11:59:15;4.40;;;1.63;;
57389;SDS011;43217;52.694;6.214;2023-08-20T12:01:42;3.03;;;1.30;;
57389;SDS011;43217;52.694;6.214;2023-08-20T12:04:08;5.23;;;1.97;;
57389;SDS011;43217;52.694;6.214;2023-08-20T12:06:37;6.72;;;2.15;;
57389;SDS011;43217;52.694;6.214;2023-08-20T12:09:22;4.65;;;1.50;;
57389;SDS011;43217;52.694;6.214;2023-08-20T12:11:50;3.85;;;1.30;;
57389;SDS011;43217;52.694;6.214;2023-08-20T12:14:21;2.85;;;1.38;;
57389;SDS011;43217;52.694;6.214;2023-08-20T12:16:47;5.37;;;1.40;;
57389;SDS011;43217;52.694;6.214;2023-08-20T12:19:13;2.93;;;1.17;;
57389;SDS011;43217;52.694;6.214;2023-08-20T12:21:39;4.57;;;1.30;;
57389;SDS011;43217;52.694;6.214;2023-08-20T12:24:11;3.13;;;1.10;;
57389;SDS011;43217;52.694;6.214;2023-08-20T12:26:38;2.25;;;1.10;;
57389;SDS011;43217;52.694;6.214;2023-08-20T12:29:05;4.78;;;1.13;;
57389;SDS011;43217;52.694;6.214;2023-08-20T12:31:34;2.67;;;1.00;;
57389;SDS011;43217;52.694;6.214;2023-08-20T12:34:00;1.63;;;0.80;;
57389;SDS011;43217;52.694;6.214;2023-08-20T12:36:26;2.53;;;1.10;;
57389;SDS011;43217;52.694;6.214;2023-08-20T12:38:52;4.30;;;1.30;;
57389;SDS011;43217;52.694;6.214;2023-08-20T12:41:18;2.20;;;0.90;;
57389;SDS011;43217;52.694;6.214;2023-08-20T12:43:44;2.47;;;1.25;;
57389;SDS011;43217;52.694;6.214;2023-08-20T12:46:10;2.70;;;1.02;;
57389;SDS011;43217;52.694;6.214;2023-08-20T12:48:37;4.15;;;1.65;;
57389;SDS011;43217;52.694;6.214;2023-08-20T12:51:02;2.97;;;1.23;;
57389;SDS011;43217;52.694;6.214;2023-08-20T12:53:28;3.63;;;0.87;;
57389;SDS011;43217;52.694;6.214;2023-08-20T12:55:54;1.67;;;0.88;;
57389;SDS011;43217;52.694;6.214;2023-08-20T12:58:19;4.47;;;1.13;;
57389;SDS011;43217;52.694;6.214;2023-08-20T13:00:45;3.08;;;0.90;;
57389;SDS011;43217;52.694;6.214;2023-08-20T13:03:11;2.60;;;1.00;;
57389;SDS011;43217;52.694;6.214;2023-08-20T13:05:38;2.72;;;1.10;;
57389;SDS011;43217;52.694;6.214;2023-08-20T13:08:04;2.80;;;0.93;;
57389;SDS011;43217;52.694;6.214;2023-08-20T13:10:30;3.43;;;1.10;;
57389;SDS011;43217;52.694;6.214;2023-08-20T13:12:57;3.67;;;1.00;;
57389;SDS011;43217;52.694;6.214;2023-08-20T13:15:26;3.75;;;1.10;;
57389;SDS011;43217;52.694;6.214;2023-08-20T13:17:52;3.75;;;1.00;;
57389;SDS011;43217;52.694;6.214;2023-08-20T13:20:18;2.97;;;0.90;;
57389;SDS011;43217;52.694;6.214;2023-08-20T13:22:49;2.50;;;0.70;;
57389;SDS011;43217;52.694;6.214;2023-08-20T13:25:16;2.35;;;0.70;;
57389;SDS011;43217;52.694;6.214;2023-08-20T13:27:42;2.93;;;0.90;;
57389;SDS011;43217;52.694;6.214;2023-08-20T13:30:08;2.63;;;0.80;;
57389;SDS011;43217;52.694;6.214;2023-08-20T13:32:35;4.28;;;1.00;;
57389;SDS011;43217;52.694;6.214;2023-08-20T13:35:00;1.58;;;0.80;;
57389;SDS011;43217;52.694;6.214;2023-08-20T13:37:27;2.83;;;0.90;;
57389;SDS011;43217;52.694;6.214;2023-08-20T13:39:54;2.58;;;0.68;;
57389;SDS011;43217;52.694;6.214;2023-08-20T13:42:19;2.00;;;0.80;;
57389;SDS011;43217;52.694;6.214;2023-08-20T13:44:45;1.60;;;0.60;;
57389;SDS011;43217;52.694;6.214;2023-08-20T13:47:11;3.20;;;0.87;;
57389;SDS011;43217;52.694;6.214;2023-08-20T13:49:36;3.10;;;1.20;;
57389;SDS011;43217;52.694;6.214;2023-08-20T13:52:02;1.70;;;0.95;;
57389;SDS011;43217;52.694;6.214;2023-08-20T13:54:27;2.00;;;0.98;;
57389;SDS011;43217;52.694;6.214;2023-08-20T13:56:53;1.77;;;0.70;;
57389;SDS011;43217;52.694;6.214;2023-08-20T13:59:19;3.10;;;0.80;;
57389;SDS011;43217;52.694;6.214;2023-08-20T14:01:44;2.70;;;0.70;;
57389;SDS011;43217;52.694;6.214;2023-08-20T14:04:10;3.33;;;0.93;;
57389;SDS011;43217;52.694;6.214;2023-08-20T14:06:36;1.57;;;1.07;;
57389;SDS011;43217;52.694;6.214;2023-08-20T14:09:01;3.47;;;1.07;;
57389;SDS011;43217;52.694;6.214;2023-08-20T14:11:29;2.38;;;0.85;;
57389;SDS011;43217;52.694;6.214;2023-08-20T14:13:55;2.17;;;0.60;;
57389;SDS011;43217;52.694;6.214;2023-08-20T14:16:21;2.50;;;0.80;;
57389;SDS011;43217;52.694;6.214;2023-08-20T14:18:46;3.20;;;0.73;;
57389;SDS011;43217;52.694;6.214;2023-08-20T14:21:12;2.08;;;0.73;;
57389;SDS011;43217;52.694;6.214;2023-08-20T14:23:38;2.97;;;0.60;;
57389;SDS011;43217;52.694;6.214;2023-08-20T14:26:05;1.50;;;0.95;;
57389;SDS011;43217;52.694;6.214;2023-08-20T14:28:32;1.77;;;0.73;;
57389;SDS011;43217;52.694;6.214;2023-08-20T14:31:01;1.90;;;0.80;;
57389;SDS011;43217;52.694;6.214;2023-08-20T14:33:28;2.05;;;0.77;;
57389;SDS011;43217;52.694;6.214;2023-08-20T14:35:54;2.30;;;0.80;;
57389;SDS011;43217;52.694;6.214;2023-08-20T14:38:20;3.33;;;0.95;;
57389;SDS011;43217;52.694;6.214;2023-08-20T14:40:45;1.92;;;0.82;;
57389;SDS011;43217;52.694;6.214;2023-08-20T14:43:12;5.53;;;1.25;;
57389;SDS011;43217;52.694;6.214;2023-08-20T14:45:37;3.35;;;1.25;;
57389;SDS011;43217;52.694;6.214;2023-08-20T14:48:03;2.55;;;1.00;;
57389;SDS011;43217;52.694;6.214;2023-08-20T14:50:29;2.75;;;1.00;;
57389;SDS011;43217;52.694;6.214;2023-08-20T14:52:55;2.25;;;1.20;;
57389;SDS011;43217;52.694;6.214;2023-08-20T14:55:20;2.35;;;1.17;;
57389;SDS011;43217;52.694;6.214;2023-08-20T14:57:46;4.03;;;1.10;;
57389;SDS011;43217;52.694;6.214;2023-08-20T15:00:13;2.90;;;1.08;;
57389;SDS011;43217;52.694;6.214;2023-08-20T15:02:48;2.30;;;1.17;;
57389;SDS011;43217;52.694;6.214;2023-08-20T15:05:14;3.22;;;1.00;;
57389;SDS011;43217;52.694;6.214;2023-08-20T15:07:40;2.88;;;1.02;;
57389;SDS011;43217;52.694;6.214;2023-08-20T15:10:05;3.08;;;1.20;;
57389;SDS011;43217;52.694;6.214;2023-08-20T15:12:36;3.22;;;1.13;;